createdAt,value
2022-10-11T00:00:19.676Z,12.60
2022-10-11T00:02:47.550Z,11.50
2022-10-11T00:05:15.420Z,12.63
2022-10-11T00:07:43.448Z,10.77
2022-10-11T00:10:11.359Z,10.57
2022-10-11T00:12:39.227Z,10.30
2022-10-11T00:15:12.976Z,12.07
2022-10-11T00:17:40.861Z,11.43
2022-10-11T00:20:09.506Z,15.13
2022-10-11T00:22:38.621Z,13.03
2022-10-11T00:25:08.070Z,12.20
2022-10-11T00:27:36.726Z,11.80
2022-10-11T00:30:06.241Z,15.70
2022-10-11T00:32:37.159Z,12.03
2022-10-11T00:35:06.394Z,14.77
2022-10-11T00:37:34.534Z,14.63
2022-10-11T00:40:03.477Z,12.80
2022-10-11T00:42:31.342Z,13.97
2022-10-11T00:45:32.450Z,12.23
2022-10-11T00:48:05.476Z,18.53
2022-10-11T00:50:36.103Z,12.23
2022-10-11T00:53:11.214Z,11.93
2022-10-11T00:55:48.067Z,12.20
2022-10-11T00:58:16.384Z,9.90
2022-10-11T01:00:44.394Z,8.27
2022-10-11T01:03:13.665Z,10.33
2022-10-11T01:05:41.965Z,10.13
2022-10-11T01:08:09.960Z,8.33
2022-10-11T01:10:38.167Z,9.30
2022-10-11T01:13:12.787Z,8.83
2022-10-11T01:15:46.764Z,8.13
2022-10-11T01:18:25.069Z,9.87
2022-10-11T01:21:02.728Z,8.80
2022-10-11T01:24:09.825Z,9.70
2022-10-11T01:27:03.308Z,11.53
2022-10-11T01:29:44.660Z,11.83
2022-10-11T01:32:18.310Z,15.57
2022-10-11T01:34:53.372Z,13.07
2022-10-11T01:37:27.713Z,13.30
2022-10-11T01:40:02.062Z,17.47
2022-10-11T01:42:30.765Z,13.40
2022-10-11T01:45:00.342Z,21.40
2022-10-11T01:47:29.644Z,11.33
2022-10-11T01:49:59.590Z,9.93
2022-10-11T01:52:29.987Z,9.77
2022-10-11T01:55:15.231Z,16.10
2022-10-11T01:57:54.217Z,17.03
2022-10-11T02:00:24.027Z,16.63
2022-10-11T02:03:11.391Z,14.63
2022-10-11T02:05:45.183Z,16.03
2022-10-11T02:08:20.582Z,15.77
2022-10-11T02:10:54.825Z,13.43
2022-10-11T02:13:27.619Z,12.97
2022-10-11T02:15:57.598Z,17.37
2022-10-11T02:18:33.266Z,13.57
2022-10-11T02:21:06.375Z,15.93
2022-10-11T02:23:38.137Z,15.13
2022-10-11T02:26:08.248Z,14.23
2022-10-11T02:28:38.740Z,16.40
2022-10-11T02:31:09.061Z,15.03
2022-10-11T02:33:42.804Z,12.17
2022-10-11T02:36:16.854Z,17.20
2022-10-11T02:38:49.767Z,13.70
2022-10-11T02:41:28.251Z,18.23
2022-10-11T02:44:01.667Z,20.57
2022-10-11T02:46:31.161Z,23.90
2022-10-11T02:49:01.470Z,20.53
2022-10-11T02:51:31.910Z,22.40
2022-10-11T02:53:59.872Z,22.57
2022-10-11T02:56:27.738Z,24.33
2022-10-11T02:58:55.608Z,22.27
2022-10-11T03:01:23.775Z,24.37
2022-10-11T03:03:51.749Z,26.13
2022-10-11T03:06:21.053Z,24.80
2022-10-11T03:08:48.944Z,26.43
2022-10-11T03:11:16.867Z,23.33
2022-10-11T03:13:44.689Z,22.33
2022-10-11T03:16:13.352Z,25.30
2022-10-11T03:18:41.444Z,25.27
2022-10-11T03:21:09.769Z,30.27
2022-10-11T03:23:39.948Z,25.10
2022-10-11T03:26:08.568Z,26.87
2022-10-11T03:28:36.972Z,29.77
2022-10-11T03:31:04.941Z,27.07
2022-10-11T03:33:32.858Z,24.20
2022-10-11T03:36:00.773Z,27.90
2022-10-11T03:38:29.085Z,26.23
2022-10-11T03:40:58.425Z,28.47
2022-10-11T03:43:26.373Z,23.67
2022-10-11T03:45:54.438Z,24.73
2022-10-11T03:48:22.521Z,22.87
2022-10-11T03:50:50.485Z,21.03
2022-10-11T03:53:18.430Z,22.10
2022-10-11T03:55:46.440Z,22.23
2022-10-11T03:58:15.848Z,24.60
2022-10-11T04:00:43.825Z,24.10
2022-10-11T04:03:11.789Z,27.83
2022-10-11T04:05:39.661Z,25.03
2022-10-11T04:08:12.004Z,28.20
2022-10-11T04:10:40.767Z,26.23
2022-10-11T04:13:08.807Z,26.87
2022-10-11T04:15:38.743Z,24.60
2022-10-11T04:18:07.058Z,31.17
2022-10-11T04:20:34.964Z,30.33
2022-10-11T04:23:02.857Z,35.10
2022-10-11T04:25:30.787Z,35.93
2022-10-11T04:27:58.968Z,37.67
2022-10-11T04:30:26.856Z,41.13
2022-10-11T04:32:56.746Z,37.60
2022-10-11T04:35:24.723Z,32.77
2022-10-11T04:37:52.630Z,34.03
2022-10-11T04:40:20.883Z,31.20
2022-10-11T04:42:50.501Z,32.17
2022-10-11T04:45:18.396Z,35.53
2022-10-11T04:47:46.194Z,34.27
2022-10-11T04:50:15.838Z,38.27
2022-10-11T04:52:43.755Z,36.33
2022-10-11T04:55:11.920Z,34.27
2022-10-11T04:57:39.799Z,36.47
2022-10-11T05:00:08.670Z,33.50
2022-10-11T05:02:36.513Z,36.33
2022-10-11T05:05:04.600Z,37.63
2022-10-11T05:07:33.821Z,31.37
2022-10-11T05:10:01.722Z,35.70
2022-10-11T05:12:29.657Z,41.03
2022-10-11T05:14:57.934Z,34.90
2022-10-11T05:17:25.832Z,34.27
2022-10-11T05:19:53.880Z,38.83
2022-10-11T05:22:21.908Z,35.67
2022-10-11T05:24:51.153Z,33.43
2022-10-11T05:27:19.009Z,41.50
2022-10-11T05:29:46.996Z,34.10
2022-10-11T05:32:14.930Z,35.97
2022-10-11T05:34:42.888Z,32.53
2022-10-11T05:37:10.988Z,34.97
2022-10-11T05:39:38.904Z,32.30
2022-10-11T05:42:10.000Z,33.83
2022-10-11T05:44:38.069Z,33.37
2022-10-11T05:47:06.078Z,29.07
2022-10-11T05:49:34.152Z,34.33
2022-10-11T05:52:02.200Z,29.30
2022-10-11T05:54:31.028Z,36.23
2022-10-11T05:56:58.853Z,29.13
2022-10-11T05:59:28.148Z,28.70
2022-10-11T06:01:56.418Z,29.37
2022-10-11T06:04:24.326Z,27.03
2022-10-11T06:06:52.217Z,27.70
2022-10-11T06:09:20.108Z,27.60
2022-10-11T06:11:48.217Z,31.77
2022-10-11T06:14:16.098Z,26.60
2022-10-11T06:16:45.346Z,33.10
2022-10-11T06:19:13.267Z,26.80
2022-10-11T06:21:41.152Z,29.10
2022-10-11T06:24:09.322Z,32.33
2022-10-11T06:26:37.190Z,28.37
2022-10-11T06:29:05.163Z,31.07
2022-10-11T06:31:33.299Z,29.03
2022-10-11T06:34:02.654Z,31.20
2022-10-11T06:36:30.960Z,26.87
2022-10-11T06:39:00.962Z,25.53
2022-10-11T06:41:30.931Z,30.50
2022-10-11T06:43:59.036Z,30.70
2022-10-11T06:46:28.345Z,32.77
2022-10-11T06:48:56.399Z,25.87
2022-10-11T06:51:28.585Z,25.83
2022-10-11T06:53:58.290Z,23.50
2022-10-11T06:56:26.912Z,26.63
2022-10-11T06:58:55.716Z,28.83
2022-10-11T07:01:24.441Z,29.40
2022-10-11T07:03:53.869Z,26.50
2022-10-11T07:06:23.240Z,25.20
2022-10-11T07:08:52.818Z,23.97
2022-10-11T07:11:22.568Z,24.87
2022-10-11T07:13:52.082Z,26.60
2022-10-11T07:16:20.912Z,29.67
2022-10-11T07:18:49.325Z,29.13
2022-10-11T07:21:17.481Z,28.37
2022-10-11T07:23:45.435Z,26.70
2022-10-11T07:26:14.814Z,28.47
2022-10-11T07:28:43.129Z,24.00
2022-10-11T07:31:13.401Z,24.10
2022-10-11T07:33:41.486Z,22.80
2022-10-11T07:36:10.317Z,25.23
2022-10-11T07:38:40.270Z,28.30
2022-10-11T07:41:08.822Z,21.93
2022-10-11T07:43:38.741Z,24.00
2022-10-11T07:46:08.063Z,23.10
2022-10-11T07:48:37.648Z,26.20
2022-10-11T07:51:07.581Z,24.00
2022-10-11T07:53:40.552Z,25.87
2022-10-11T07:56:09.544Z,21.07
2022-10-11T07:58:38.864Z,25.37
2022-10-11T08:01:07.220Z,29.80
2022-10-11T08:03:35.423Z,24.97
2022-10-11T08:06:04.764Z,23.73
2022-10-11T08:08:33.160Z,24.27
2022-10-11T08:11:01.078Z,21.10
2022-10-11T08:13:29.117Z,19.50
2022-10-11T08:15:58.561Z,25.77
2022-10-11T08:18:27.200Z,25.20
2022-10-11T08:20:55.075Z,23.33
2022-10-11T08:23:23.007Z,25.13
2022-10-11T08:25:50.934Z,25.37
2022-10-11T08:28:18.950Z,23.40
2022-10-11T08:30:50.229Z,22.87
2022-10-11T08:33:20.203Z,22.93
2022-10-11T08:35:48.570Z,27.60
2022-10-11T08:38:16.616Z,25.90
2022-10-11T08:40:47.408Z,28.93
2022-10-11T08:43:28.983Z,28.63
2022-10-11T08:46:01.025Z,23.83
2022-10-11T08:48:36.245Z,29.57
2022-10-11T08:51:09.702Z,25.33
2022-10-11T08:53:45.246Z,23.57
2022-10-11T08:56:15.259Z,22.80
2022-10-11T08:58:47.989Z,27.10
2022-10-11T09:01:21.650Z,27.20
2022-10-11T09:03:51.666Z,22.13
2022-10-11T09:06:32.657Z,23.87
2022-10-11T09:09:14.242Z,24.67
2022-10-11T09:11:53.035Z,27.70
2022-10-11T09:14:51.954Z,27.77
2022-10-11T09:17:31.197Z,20.57
2022-10-11T09:20:35.109Z,25.67
2022-10-11T09:23:09.828Z,25.53
2022-10-11T09:25:44.311Z,21.87
2022-10-11T09:28:22.959Z,23.83
2022-10-11T09:30:54.545Z,28.70
2022-10-11T09:33:30.502Z,27.27
2022-10-11T09:36:00.396Z,22.67
2022-10-11T09:38:37.045Z,24.13
2022-10-11T09:41:12.714Z,27.27
2022-10-11T09:43:40.933Z,26.13
2022-10-11T09:46:21.727Z,22.23
2022-10-11T09:48:51.428Z,22.37
2022-10-11T09:51:23.883Z,31.77
2022-10-11T09:54:03.073Z,25.70
2022-10-11T09:56:33.434Z,29.40
2022-10-11T09:59:09.417Z,26.03
2022-10-11T10:01:38.084Z,21.63
2022-10-11T10:04:11.469Z,26.53
2022-10-11T10:06:41.488Z,30.27
2022-10-11T10:09:25.165Z,22.43
2022-10-11T10:11:53.553Z,23.47
2022-10-11T10:14:24.916Z,22.43
2022-10-11T10:17:02.351Z,22.77
2022-10-11T10:19:32.663Z,24.10
2022-10-11T10:22:02.084Z,25.53
2022-10-11T10:24:39.240Z,29.00
2022-10-11T10:27:16.843Z,21.00
2022-10-11T10:29:45.301Z,24.17
2022-10-11T10:32:15.431Z,22.73
2022-10-11T10:34:56.241Z,24.90
2022-10-11T10:37:29.861Z,23.00
2022-10-11T10:40:03.765Z,16.40
2022-10-11T10:42:31.682Z,20.67
2022-10-11T10:45:00.154Z,25.10
2022-10-11T10:47:45.930Z,19.33
2022-10-11T10:50:19.789Z,20.43
2022-10-11T10:52:56.417Z,21.57
2022-10-11T10:55:29.681Z,18.33
2022-10-11T10:58:09.512Z,20.57
2022-10-11T11:00:44.337Z,19.03
2022-10-11T11:03:20.919Z,16.50
2022-10-11T11:05:58.584Z,18.03
2022-10-11T11:08:54.175Z,18.40
2022-10-11T11:11:39.074Z,21.83
2022-10-11T11:14:20.150Z,19.93
2022-10-11T11:16:56.510Z,19.37
2022-10-11T11:19:37.879Z,18.57
2022-10-11T11:22:11.642Z,19.23
2022-10-11T11:24:54.032Z,16.30
2022-10-11T11:27:33.779Z,16.60
2022-10-11T11:30:07.322Z,15.60
2022-10-11T11:32:46.439Z,16.07
2022-10-11T11:35:23.052Z,15.27
2022-10-11T11:38:01.265Z,17.80
2022-10-11T11:40:38.182Z,16.83
2022-10-11T11:43:13.439Z,17.17
2022-10-11T11:45:47.830Z,18.20
2022-10-11T11:48:20.154Z,15.20
2022-10-11T11:50:55.860Z,16.87
2022-10-11T11:53:32.968Z,17.00
2022-10-11T11:56:10.615Z,15.47
2022-10-11T11:58:45.884Z,15.57
2022-10-11T12:01:22.196Z,15.87
2022-10-11T12:03:54.408Z,19.50
2022-10-11T12:06:29.492Z,19.37
2022-10-11T12:09:03.687Z,20.47
2022-10-11T12:11:46.941Z,17.27
2022-10-11T12:14:29.225Z,15.90
2022-10-11T12:17:16.672Z,17.57
2022-10-11T12:20:00.396Z,18.90
2022-10-11T12:22:42.656Z,17.13
2022-10-11T12:25:41.984Z,19.00
2022-10-11T12:29:00.812Z,15.30
2022-10-11T12:31:30.736Z,17.13
2022-10-11T12:34:19.492Z,15.23
2022-10-11T12:37:04.581Z,15.10
2022-10-11T12:39:52.041Z,13.93
2022-10-11T12:42:35.696Z,12.43
2022-10-11T12:45:37.960Z,14.80
2022-10-11T12:48:40.639Z,16.90
2022-10-11T12:51:29.002Z,12.63
2022-10-11T12:54:44.365Z,12.20
2022-10-11T12:58:07.595Z,15.80
2022-10-11T13:01:19.171Z,16.50
2022-10-11T13:04:09.486Z,14.73
2022-10-11T13:06:53.778Z,15.27
2022-10-11T13:09:39.493Z,12.97
2022-10-11T13:12:19.411Z,16.03
2022-10-11T13:15:07.605Z,12.50
2022-10-11T13:17:49.946Z,15.63
2022-10-11T13:20:41.744Z,17.47
2022-10-11T13:23:23.473Z,17.53
2022-10-11T13:25:55.418Z,11.33
2022-10-11T13:28:44.959Z,14.40
2022-10-11T13:31:29.253Z,14.20
2022-10-11T13:34:10.163Z,12.27
2022-10-11T13:36:56.433Z,15.83
2022-10-11T13:39:52.024Z,22.77
2022-10-11T13:42:41.255Z,14.93
2022-10-11T13:45:27.615Z,14.57
2022-10-11T13:48:05.731Z,11.43
2022-10-11T13:51:16.623Z,13.23
2022-10-11T13:54:28.301Z,14.43
2022-10-11T13:57:21.044Z,14.27
2022-10-11T14:00:03.626Z,14.03
2022-10-11T14:02:54.980Z,11.97
2022-10-11T14:05:30.788Z,13.77
2022-10-11T14:08:02.848Z,15.33
2022-10-11T14:10:31.039Z,14.63
2022-10-11T14:13:08.495Z,13.60
2022-10-11T14:15:37.971Z,13.23
2022-10-11T14:18:33.564Z,12.93
2022-10-11T14:21:27.285Z,12.03
2022-10-11T14:23:58.598Z,12.53
2022-10-11T14:26:28.351Z,14.90
2022-10-11T14:28:59.007Z,15.33
2022-10-11T14:31:30.630Z,14.83
2022-10-11T14:33:59.444Z,12.23
2022-10-11T14:36:27.912Z,14.33
2022-10-11T14:38:57.132Z,12.13
2022-10-11T14:41:25.121Z,12.57
2022-10-11T14:43:56.265Z,13.77
2022-10-11T14:46:27.003Z,17.20
2022-10-11T14:48:56.697Z,18.30
2022-10-11T14:51:30.020Z,15.63
2022-10-11T14:54:00.200Z,13.43
2022-10-11T14:56:28.282Z,18.03
2022-10-11T14:58:56.194Z,15.80
2022-10-11T15:01:24.520Z,13.73
2022-10-11T15:03:52.569Z,15.10
2022-10-11T15:06:22.767Z,16.10
2022-10-11T15:08:51.006Z,15.60
2022-10-11T15:11:22.060Z,13.20
2022-10-11T15:13:50.302Z,13.20
2022-10-11T15:16:20.980Z,13.13
2022-10-11T15:18:50.941Z,15.33
2022-10-11T15:21:20.766Z,15.93
2022-10-11T15:23:50.700Z,14.23
2022-10-11T15:26:21.662Z,13.03
2022-10-11T15:28:50.601Z,13.07
2022-10-11T15:31:19.088Z,13.53
2022-10-11T15:33:46.999Z,16.43
2022-10-11T15:36:16.985Z,10.37
2022-10-11T15:38:45.943Z,12.07
2022-10-11T15:41:15.507Z,15.63
2022-10-11T15:43:45.983Z,13.83
2022-10-11T15:46:17.317Z,17.10
2022-10-11T15:48:45.351Z,13.57
2022-10-11T15:51:13.309Z,13.27
2022-10-11T15:53:41.302Z,16.03
2022-10-11T15:56:14.192Z,14.20
2022-10-11T15:58:44.264Z,19.97
2022-10-11T16:01:15.663Z,13.93
2022-10-11T16:03:44.513Z,15.40
2022-10-11T16:06:13.331Z,13.17
2022-10-11T16:08:41.464Z,14.77
2022-10-11T16:11:10.259Z,15.13
2022-10-11T16:13:38.572Z,14.80
2022-10-11T16:16:09.723Z,15.03
2022-10-11T16:18:39.473Z,20.07
2022-10-11T16:21:09.994Z,16.03
2022-10-11T16:23:39.064Z,18.33
2022-10-11T16:26:09.874Z,13.37
2022-10-11T16:28:38.641Z,18.10
2022-10-11T16:31:14.246Z,13.83
2022-10-11T16:33:46.500Z,14.93
2022-10-11T16:36:36.381Z,14.27
2022-10-11T16:39:08.777Z,14.00
2022-10-11T16:41:36.865Z,17.97
2022-10-11T16:44:05.599Z,11.97
2022-10-11T16:46:35.418Z,18.90
2022-10-11T16:49:03.485Z,14.83
2022-10-11T16:51:31.628Z,15.87
2022-10-11T16:53:59.658Z,12.97
2022-10-11T16:56:27.903Z,15.10
2022-10-11T16:58:56.314Z,14.27
2022-10-11T17:01:24.304Z,16.67
2022-10-11T17:03:53.784Z,16.93
2022-10-11T17:06:21.851Z,12.73
2022-10-11T17:08:49.950Z,14.37
2022-10-11T17:11:18.610Z,16.07
2022-10-11T17:13:47.131Z,22.27
2022-10-11T17:16:16.012Z,16.33
2022-10-11T17:18:44.283Z,14.87
2022-10-11T17:21:16.061Z,14.47
2022-10-11T17:23:44.270Z,18.10
2022-10-11T17:26:16.573Z,17.57
2022-10-11T17:28:45.239Z,17.63
2022-10-11T17:31:13.132Z,18.43
2022-10-11T17:33:40.993Z,13.93
2022-10-11T17:36:20.375Z,23.53
2022-10-11T17:38:49.173Z,22.13
2022-10-11T17:41:17.412Z,15.37
2022-10-11T17:43:45.447Z,17.43
2022-10-11T17:46:15.451Z,16.93
2022-10-11T17:48:44.685Z,15.90
2022-10-11T17:51:15.332Z,22.50
2022-10-11T17:53:45.183Z,15.57
2022-10-11T17:56:15.560Z,17.07
2022-10-11T17:58:44.398Z,15.57
2022-10-11T18:01:15.065Z,18.70
2022-10-11T18:03:44.096Z,22.33
2022-10-11T18:06:14.774Z,21.10
2022-10-11T18:08:44.264Z,28.47
2022-10-11T18:11:13.559Z,21.17
2022-10-11T18:13:45.738Z,23.37
2022-10-11T18:16:14.224Z,14.00
2022-10-11T18:18:43.697Z,20.77
2022-10-11T18:21:13.364Z,19.33
2022-10-11T18:23:41.577Z,15.33
2022-10-11T18:26:12.867Z,20.83
2022-10-11T18:28:41.576Z,14.13
2022-10-11T18:31:13.418Z,23.87
2022-10-11T18:33:42.828Z,11.70
2022-10-11T18:36:13.312Z,20.93
2022-10-11T18:38:43.835Z,17.20
2022-10-11T18:41:14.114Z,16.20
2022-10-11T18:43:42.346Z,15.77
2022-10-11T18:46:12.116Z,14.77
2022-10-11T18:48:41.748Z,13.40
2022-10-11T18:51:12.152Z,18.13
2022-10-11T18:53:40.279Z,16.30
2022-10-11T18:56:10.441Z,14.60
2022-10-11T18:58:41.006Z,16.30
2022-10-11T19:01:10.642Z,56.03
2022-10-11T19:03:39.174Z,15.23
2022-10-11T19:06:11.171Z,17.87
2022-10-11T19:08:38.994Z,21.90
2022-10-11T19:11:07.579Z,22.47
2022-10-11T19:13:35.721Z,19.70
2022-10-11T19:16:10.171Z,19.57
2022-10-11T19:18:43.873Z,22.90
2022-10-11T19:21:14.456Z,18.97
2022-10-11T19:23:43.809Z,19.53
2022-10-11T19:26:15.106Z,14.20
2022-10-11T19:28:43.543Z,23.13
2022-10-11T19:31:16.691Z,15.10
2022-10-11T19:33:47.841Z,17.00
2022-10-11T19:36:15.827Z,15.57
2022-10-11T19:38:46.101Z,17.93
2022-10-11T19:41:15.160Z,16.33
2022-10-11T19:43:43.619Z,16.97
2022-10-11T19:46:20.262Z,14.37
2022-10-11T19:48:52.164Z,18.23
2022-10-11T19:51:21.992Z,12.50
2022-10-11T19:53:50.757Z,15.67
2022-10-11T19:56:19.660Z,20.93
2022-10-11T19:58:47.528Z,22.00
2022-10-11T20:01:19.221Z,16.83
2022-10-11T20:03:50.480Z,16.73
2022-10-11T20:06:20.035Z,15.20
2022-10-11T20:08:59.778Z,16.30
2022-10-11T20:11:32.900Z,14.83
2022-10-11T20:14:00.860Z,15.97
2022-10-11T20:16:30.354Z,16.17
2022-10-11T20:18:59.563Z,14.90
2022-10-11T20:21:29.629Z,13.53
2022-10-11T20:23:59.926Z,17.37
2022-10-11T20:26:29.653Z,17.60
2022-10-11T20:28:58.657Z,17.13
2022-10-11T20:31:28.370Z,17.33
2022-10-11T20:33:58.773Z,18.33
2022-10-11T20:36:29.461Z,17.77
2022-10-11T20:38:58.664Z,18.30
2022-10-11T20:41:28.205Z,17.47
2022-10-11T20:43:57.594Z,18.57
2022-10-11T20:46:27.889Z,17.00
2022-10-11T20:49:01.939Z,18.40
2022-10-11T20:51:30.842Z,20.67
2022-10-11T20:54:00.521Z,16.50
2022-10-11T20:56:29.631Z,19.33
2022-10-11T20:58:59.523Z,17.50
2022-10-11T21:01:29.478Z,19.23
2022-10-11T21:04:00.862Z,19.07
2022-10-11T21:06:29.883Z,15.93
2022-10-11T21:08:58.989Z,16.27
2022-10-11T21:11:27.173Z,16.80
2022-10-11T21:13:56.527Z,20.33
2022-10-11T21:16:24.824Z,14.67
2022-10-11T21:18:53.915Z,13.50
2022-10-11T21:21:24.385Z,17.33
2022-10-11T21:23:54.491Z,19.50
2022-10-11T21:26:22.546Z,19.00
2022-10-11T21:28:50.635Z,17.97
2022-10-11T21:31:20.678Z,25.67
2022-10-11T21:33:49.052Z,16.30
2022-10-11T21:36:18.986Z,19.30
2022-10-11T21:38:48.620Z,17.27
2022-10-11T21:41:18.430Z,15.33
2022-10-11T21:43:47.157Z,17.63
2022-10-11T21:46:18.143Z,20.77
2022-10-11T21:48:46.375Z,17.87
2022-10-11T21:51:16.664Z,17.73
2022-10-11T21:53:44.571Z,17.30
2022-10-11T21:56:13.768Z,19.83
2022-10-11T21:58:41.669Z,17.83
2022-10-11T22:01:11.243Z,15.30
2022-10-11T22:03:39.129Z,18.87
2022-10-11T22:06:07.397Z,14.97
2022-10-11T22:08:35.308Z,13.50
2022-10-11T22:11:03.208Z,18.13
2022-10-11T22:13:34.074Z,19.07
2022-10-11T22:16:04.576Z,14.27
2022-10-11T22:18:33.823Z,14.50
2022-10-11T22:21:06.423Z,17.17
2022-10-11T22:23:35.313Z,14.90
2022-10-11T22:26:04.854Z,18.37
2022-10-11T22:28:34.698Z,14.63
2022-10-11T22:31:02.978Z,17.00
2022-10-11T22:33:31.003Z,16.93
2022-10-11T22:36:00.647Z,15.83
2022-10-11T22:38:29.335Z,14.33
2022-10-11T22:40:59.511Z,16.57
2022-10-11T22:43:27.395Z,16.93
2022-10-11T22:45:56.641Z,16.93
2022-10-11T22:48:24.612Z,21.47
2022-10-11T22:50:52.530Z,18.90
2022-10-11T22:53:20.637Z,16.37
2022-10-11T22:55:49.260Z,15.63
2022-10-11T22:58:17.234Z,17.23
2022-10-11T23:00:45.174Z,17.43
2022-10-11T23:03:15.172Z,18.73
2022-10-11T23:05:43.349Z,20.77
2022-10-11T23:08:11.797Z,16.63
2022-10-11T23:10:40.023Z,18.80
2022-10-11T23:13:08.190Z,18.63
2022-10-11T23:15:40.117Z,17.97
2022-10-11T23:18:08.144Z,22.47
2022-10-11T23:20:39.389Z,17.37
2022-10-11T23:23:07.732Z,21.30
2022-10-11T23:25:35.718Z,16.17
2022-10-11T23:28:03.566Z,19.37
2022-10-11T23:30:31.748Z,18.50
2022-10-11T23:32:59.613Z,21.40
2022-10-11T23:35:27.473Z,18.13
2022-10-11T23:37:56.716Z,15.93
2022-10-11T23:40:24.546Z,18.63
2022-10-11T23:42:52.396Z,18.57
2022-10-11T23:45:20.259Z,20.17
2022-10-11T23:47:48.119Z,22.57
2022-10-11T23:50:16.133Z,17.03
2022-10-11T23:52:44.050Z,14.63
2022-10-11T23:55:13.321Z,20.60
2022-10-11T23:57:41.400Z,18.03
